createdAt,value
2023-03-20T00:01:58.225Z,0.70
2023-03-20T00:04:26.630Z,0.57
2023-03-20T00:06:54.466Z,1.10
2023-03-20T00:09:25.460Z,1.23
2023-03-20T00:11:55.347Z,1.10
2023-03-20T00:14:24.827Z,1.00
2023-03-20T00:16:53.104Z,1.23
2023-03-20T00:19:23.852Z,1.65
2023-03-20T00:21:51.895Z,1.80
2023-03-20T00:24:19.842Z,1.90
2023-03-20T00:26:50.704Z,1.23
2023-03-20T00:29:23.328Z,1.38
2023-03-20T00:31:51.481Z,1.58
2023-03-20T00:34:22.182Z,1.80
2023-03-20T00:36:49.807Z,1.48
2023-03-20T00:39:17.374Z,1.60
2023-03-20T00:41:50.100Z,1.88
2023-03-20T00:44:24.632Z,1.83
2023-03-20T00:46:55.044Z,1.40
2023-03-20T00:49:26.278Z,1.42
2023-03-20T00:51:53.841Z,1.67
2023-03-20T00:54:21.532Z,1.42
2023-03-20T00:56:55.817Z,1.30
2023-03-20T00:59:28.013Z,1.50
2023-03-20T01:01:56.479Z,2.45
2023-03-20T01:04:24.273Z,1.77
2023-03-20T01:06:52.504Z,1.60
2023-03-20T01:09:20.068Z,1.40
2023-03-20T01:11:47.849Z,1.50
2023-03-20T01:14:17.900Z,1.20
2023-03-20T01:16:46.924Z,1.60
2023-03-20T01:19:16.729Z,1.38
2023-03-20T01:21:44.889Z,1.50
2023-03-20T01:24:12.472Z,1.80
2023-03-20T01:26:42.245Z,1.50
2023-03-20T01:29:19.019Z,1.35
2023-03-20T01:32:14.708Z,1.20
2023-03-20T01:34:43.406Z,1.10
2023-03-20T01:37:14.490Z,0.90
2023-03-20T01:39:42.344Z,1.25
2023-03-20T01:42:12.668Z,1.02
2023-03-20T01:44:44.046Z,1.10
2023-03-20T01:47:18.213Z,0.98
2023-03-20T01:50:22.207Z,0.80
2023-03-20T01:52:56.469Z,0.80
2023-03-20T01:58:03.009Z,1.13
2023-03-20T02:00:32.160Z,0.75
2023-03-20T02:03:01.498Z,1.00
2023-03-20T02:05:51.922Z,1.10
2023-03-20T02:08:26.786Z,1.10
2023-03-20T02:10:55.716Z,1.20
2023-03-20T02:13:29.810Z,1.20
2023-03-20T02:16:01.156Z,1.48
2023-03-20T02:18:49.771Z,2.45
2023-03-20T02:21:46.416Z,1.48
2023-03-20T02:24:44.626Z,1.35
2023-03-20T02:27:20.774Z,1.20
2023-03-20T02:30:24.199Z,1.08
2023-03-20T02:33:26.905Z,1.10
2023-03-20T02:36:27.447Z,1.20
2023-03-20T02:39:07.846Z,1.20
2023-03-20T02:41:40.146Z,0.90
2023-03-20T02:44:14.654Z,1.05
2023-03-20T02:46:52.736Z,0.80
2023-03-20T02:58:01.007Z,0.80
2023-03-20T03:00:33.484Z,0.90
2023-03-20T03:03:07.724Z,0.87
2023-03-20T03:05:39.564Z,1.00
2023-03-20T03:08:10.728Z,0.90
2023-03-20T03:10:43.706Z,0.90
2023-03-20T03:13:16.865Z,1.45
2023-03-20T03:15:47.717Z,1.70
2023-03-20T03:18:20.003Z,2.15
2023-03-20T03:20:51.184Z,1.43
2023-03-20T03:23:31.683Z,1.48
2023-03-20T03:26:02.118Z,4.68
2023-03-20T03:28:38.706Z,3.58
2023-03-20T03:31:09.363Z,3.63
2023-03-20T03:33:40.873Z,4.20
2023-03-20T03:36:20.651Z,4.85
2023-03-20T03:38:56.569Z,4.82
2023-03-20T03:41:31.178Z,5.30
2023-03-20T03:44:08.863Z,4.35
2023-03-20T03:46:46.299Z,4.75
2023-03-20T03:49:19.653Z,5.00
2023-03-20T03:51:51.773Z,6.45
2023-03-20T03:54:23.534Z,5.90
2023-03-20T03:57:12.908Z,6.10
2023-03-20T03:59:45.862Z,4.78
2023-03-20T04:02:14.020Z,5.13
2023-03-20T04:04:46.395Z,5.00
2023-03-20T04:07:15.002Z,5.03
2023-03-20T04:09:42.636Z,4.88
2023-03-20T04:12:31.564Z,4.13
2023-03-20T04:15:03.237Z,4.30
2023-03-20T04:17:33.389Z,4.30
2023-03-20T04:20:01.336Z,4.57
2023-03-20T04:22:29.032Z,4.50
2023-03-20T04:25:00.585Z,4.40
2023-03-20T04:27:29.162Z,4.75
2023-03-20T04:29:57.702Z,4.43
2023-03-20T04:32:49.865Z,4.95
2023-03-20T04:35:31.104Z,5.32
2023-03-20T04:38:03.827Z,5.65
2023-03-20T04:40:34.026Z,5.32
2023-03-20T04:43:01.637Z,6.50
2023-03-20T04:45:29.442Z,6.22
2023-03-20T04:47:58.512Z,6.28
2023-03-20T04:50:26.214Z,6.35
2023-03-20T04:52:54.867Z,6.18
2023-03-20T04:55:22.760Z,6.90
2023-03-20T04:57:51.509Z,6.78
2023-03-20T05:00:19.747Z,6.22
2023-03-20T05:02:47.490Z,6.30
2023-03-20T05:05:17.884Z,5.53
2023-03-20T05:07:45.933Z,6.75
2023-03-20T05:10:20.520Z,6.50
2023-03-20T05:12:56.941Z,5.68
2023-03-20T05:15:31.992Z,6.88
2023-03-20T05:18:31.856Z,7.53
2023-03-20T05:21:30.142Z,8.27
2023-03-20T05:24:18.184Z,6.95
2023-03-20T05:27:04.063Z,6.88
2023-03-20T05:29:48.303Z,7.55
2023-03-20T05:32:27.975Z,8.07
2023-03-20T05:35:09.348Z,7.60
2023-03-20T05:37:55.047Z,7.43
2023-03-20T05:40:42.348Z,8.60
2023-03-20T05:43:16.077Z,8.52
2023-03-20T05:45:56.789Z,8.05
2023-03-20T05:48:30.547Z,7.65
2023-03-20T05:51:13.949Z,7.55
2023-03-20T05:53:56.995Z,7.82
2023-03-20T05:56:44.995Z,7.50
2023-03-20T05:59:23.681Z,7.90
2023-03-20T06:02:05.370Z,7.13
2023-03-20T06:04:37.270Z,7.88
2023-03-20T06:07:40.106Z,8.68
2023-03-20T06:10:13.957Z,8.55
2023-03-20T06:12:42.734Z,8.25
2023-03-20T06:15:11.149Z,7.95
2023-03-20T06:17:43.604Z,7.47
2023-03-20T06:20:14.368Z,8.68
2023-03-20T06:22:41.959Z,8.10
2023-03-20T06:25:10.488Z,8.32
2023-03-20T06:27:44.166Z,8.02
2023-03-20T06:30:12.814Z,7.45
2023-03-20T06:32:41.483Z,8.52
2023-03-20T06:35:12.282Z,8.40
2023-03-20T06:37:44.670Z,8.90
2023-03-20T06:40:17.572Z,7.78
2023-03-20T06:42:46.552Z,7.88
2023-03-20T06:45:15.718Z,8.15
2023-03-20T06:48:01.420Z,7.70
2023-03-20T06:50:29.217Z,8.15
2023-03-20T06:52:59.533Z,7.70
2023-03-20T06:55:41.541Z,7.65
2023-03-20T06:58:10.613Z,8.23
2023-03-20T07:00:39.145Z,7.43
2023-03-20T07:03:08.674Z,7.55
2023-03-20T07:05:36.780Z,7.25
2023-03-20T07:08:08.505Z,7.47
2023-03-20T07:10:36.484Z,7.47
2023-03-20T07:13:04.779Z,7.03
2023-03-20T07:15:34.558Z,7.38
2023-03-20T07:18:02.586Z,6.95
2023-03-20T07:20:30.313Z,6.63
2023-03-20T07:22:58.086Z,6.30
2023-03-20T07:25:39.675Z,6.35
2023-03-20T07:28:11.086Z,6.53
2023-03-20T07:30:43.542Z,5.95
2023-03-20T07:33:12.010Z,6.93
2023-03-20T07:35:40.622Z,6.43
2023-03-20T07:38:09.108Z,6.55
2023-03-20T07:40:45.914Z,6.03
2023-03-20T07:43:16.749Z,6.40
2023-03-20T07:46:11.615Z,6.68
2023-03-20T07:48:39.669Z,6.28
2023-03-20T07:51:07.998Z,5.97
2023-03-20T07:53:35.651Z,6.43
2023-03-20T07:56:05.361Z,7.10
2023-03-20T07:58:32.950Z,6.00
2023-03-20T08:01:03.550Z,5.97
2023-03-20T08:03:32.811Z,6.43
2023-03-20T08:06:01.637Z,6.13
2023-03-20T08:08:29.465Z,6.28
2023-03-20T08:10:57.208Z,6.47
2023-03-20T08:13:24.747Z,6.40
2023-03-20T08:15:52.638Z,5.65
2023-03-20T08:18:22.360Z,6.30
2023-03-20T08:20:51.491Z,5.78
2023-03-20T08:23:20.797Z,6.57
2023-03-20T08:25:49.251Z,6.07
2023-03-20T08:28:17.418Z,6.00
2023-03-20T08:30:45.421Z,6.20
2023-03-20T08:33:13.952Z,6.07
2023-03-20T08:35:41.621Z,5.80
2023-03-20T08:38:13.194Z,6.00
2023-03-20T08:40:42.022Z,6.18
2023-03-20T08:43:09.891Z,5.97
2023-03-20T08:45:37.974Z,5.25
2023-03-20T08:48:05.815Z,5.57
2023-03-20T08:50:33.539Z,5.10
2023-03-20T08:53:01.205Z,4.75
2023-03-20T08:55:30.237Z,4.80
2023-03-20T08:57:58.205Z,6.18
2023-03-20T09:00:27.501Z,5.32
2023-03-20T09:02:55.217Z,5.50
2023-03-20T09:05:22.979Z,5.63
2023-03-20T09:07:51.291Z,5.80
2023-03-20T09:10:19.069Z,6.18
2023-03-20T09:12:47.890Z,5.65
2023-03-20T09:15:15.484Z,6.22
2023-03-20T09:17:43.000Z,5.93
2023-03-20T09:20:11.781Z,5.43
2023-03-20T09:22:41.062Z,5.97
2023-03-20T09:25:09.654Z,5.32
2023-03-20T09:27:37.325Z,5.28
2023-03-20T09:30:08.230Z,5.32
2023-03-20T09:32:36.244Z,5.20
2023-03-20T09:35:04.543Z,4.80
2023-03-20T09:37:32.037Z,5.15
2023-03-20T09:39:59.703Z,4.90
2023-03-20T09:42:39.409Z,4.85
2023-03-20T09:45:15.539Z,5.20
2023-03-20T09:47:50.815Z,4.65
2023-03-20T09:50:27.134Z,4.25
2023-03-20T09:52:59.146Z,4.45
2023-03-20T09:55:34.805Z,4.00
2023-03-20T09:58:10.967Z,3.47
2023-03-20T10:00:43.718Z,3.17
2023-03-20T10:03:19.816Z,3.90
2023-03-20T10:05:50.965Z,3.65
2023-03-20T10:08:22.165Z,3.92
2023-03-20T10:10:53.593Z,3.70
2023-03-20T10:13:40.176Z,3.55
2023-03-20T10:16:18.351Z,3.80
2023-03-20T10:18:52.529Z,4.00
2023-03-20T10:21:26.234Z,3.45
2023-03-20T10:24:01.358Z,3.70
2023-03-20T10:26:30.994Z,3.90
2023-03-20T10:29:00.001Z,3.70
2023-03-20T10:31:38.458Z,4.15
2023-03-20T10:34:24.863Z,3.83
2023-03-20T10:37:05.346Z,3.58
2023-03-20T10:39:50.206Z,3.83
2023-03-20T10:42:22.726Z,3.60
2023-03-20T10:44:57.366Z,3.60
2023-03-20T10:47:32.132Z,3.25
2023-03-20T10:50:03.940Z,3.60
2023-03-20T10:52:34.894Z,3.33
2023-03-20T10:55:07.862Z,3.38
2023-03-20T10:57:41.909Z,2.92
2023-03-20T11:00:15.381Z,3.00
2023-03-20T11:02:44.410Z,3.53
2023-03-20T11:05:23.076Z,3.38
2023-03-20T11:07:54.190Z,3.45
2023-03-20T11:10:22.055Z,3.30
2023-03-20T11:12:52.248Z,2.92
2023-03-20T11:15:23.807Z,3.05
2023-03-20T11:17:57.508Z,3.38
2023-03-20T11:20:27.924Z,3.15
2023-03-20T11:23:00.641Z,3.30
2023-03-20T11:25:33.381Z,2.95
2023-03-20T11:28:32.866Z,1.73
2023-03-20T11:31:05.257Z,3.10
2023-03-20T11:33:38.425Z,1.88
2023-03-20T11:36:12.998Z,3.10
2023-03-20T11:38:46.004Z,2.78
2023-03-20T11:41:19.627Z,3.45
2023-03-20T11:43:47.240Z,3.03
2023-03-20T11:46:15.446Z,2.90
2023-03-20T11:48:46.515Z,3.00
2023-03-20T11:51:17.873Z,3.10
2023-03-20T11:54:01.180Z,3.13
2023-03-20T11:56:30.545Z,3.40
2023-03-20T11:59:00.910Z,3.03
2023-03-20T12:01:30.903Z,3.50
2023-03-20T12:04:05.105Z,3.53
2023-03-20T12:06:43.824Z,3.20
2023-03-20T12:09:18.927Z,2.70
2023-03-20T12:11:55.446Z,3.50
2023-03-20T12:14:33.846Z,5.47
2023-03-20T12:17:30.830Z,2.88
2023-03-20T12:20:04.798Z,2.30
2023-03-20T12:22:37.849Z,2.55
2023-03-20T12:25:16.568Z,2.95
2023-03-20T12:27:49.051Z,3.38
2023-03-20T12:30:21.608Z,2.80
2023-03-20T12:32:57.236Z,2.30
2023-03-20T12:35:29.052Z,2.63
2023-03-20T12:37:56.791Z,2.28
2023-03-20T12:40:34.350Z,2.40
2023-03-20T12:43:06.701Z,2.67
2023-03-20T12:45:44.216Z,2.90
2023-03-20T12:48:37.609Z,3.08
2023-03-20T12:51:13.691Z,3.10
2023-03-20T12:53:53.423Z,3.17
2023-03-20T12:56:32.209Z,3.45
2023-03-20T12:59:07.995Z,2.67
2023-03-20T13:01:41.983Z,4.70
2023-03-20T13:04:44.601Z,3.05
2023-03-20T13:07:20.322Z,3.47
2023-03-20T13:09:58.076Z,2.33
2023-03-20T13:12:34.335Z,2.53
2023-03-20T13:15:14.981Z,2.20
2023-03-20T13:17:50.964Z,2.50
2023-03-20T13:20:27.949Z,2.58
2023-03-20T13:23:06.082Z,6.15
2023-03-20T13:25:57.469Z,3.63
2023-03-20T13:28:31.766Z,6.45
2023-03-20T13:31:07.318Z,2.78
2023-03-20T13:33:46.288Z,2.33
2023-03-20T13:36:24.256Z,4.32
2023-03-20T13:39:01.174Z,3.90
2023-03-20T13:41:29.448Z,2.53
2023-03-20T13:44:01.106Z,2.70
2023-03-20T13:46:34.986Z,2.08
2023-03-20T13:49:09.641Z,1.67
2023-03-20T13:51:43.215Z,1.55
2023-03-20T13:54:33.060Z,1.30
2023-03-20T13:57:08.090Z,1.40
2023-03-20T13:59:44.501Z,1.25
2023-03-20T14:02:27.500Z,1.60
2023-03-20T14:05:02.214Z,1.30
2023-03-20T14:07:32.216Z,1.13
2023-03-20T14:10:39.766Z,1.40
2023-03-20T14:13:14.368Z,1.30
2023-03-20T14:15:56.159Z,1.40
2023-03-20T14:18:26.279Z,1.58
2023-03-20T14:20:56.977Z,1.40
2023-03-20T14:23:34.877Z,1.48
2023-03-20T14:26:22.813Z,1.73
2023-03-20T14:28:56.622Z,1.70
2023-03-20T14:31:27.728Z,1.38
2023-03-20T14:34:01.317Z,1.52
2023-03-20T14:36:45.810Z,1.40
2023-03-20T14:39:23.468Z,1.30
2023-03-20T14:42:06.519Z,1.40
2023-03-20T14:44:52.448Z,1.48
2023-03-20T14:47:31.112Z,1.42
2023-03-20T14:50:07.021Z,1.52
2023-03-20T14:52:46.782Z,2.03
2023-03-20T14:55:47.388Z,1.30
2023-03-20T14:58:54.393Z,1.60
2023-03-20T15:01:44.044Z,1.50
2023-03-20T15:04:23.963Z,1.73
2023-03-20T15:06:57.439Z,1.48
2023-03-20T15:09:27.632Z,1.70
2023-03-20T15:11:59.531Z,1.60
2023-03-20T15:14:30.225Z,1.85
2023-03-20T15:16:59.143Z,1.73
2023-03-20T15:19:27.042Z,1.48
2023-03-20T15:21:55.778Z,1.75
2023-03-20T15:24:24.418Z,1.58
2023-03-20T15:26:54.452Z,1.40
2023-03-20T15:29:22.881Z,1.45
2023-03-20T15:32:12.426Z,1.60
2023-03-20T15:34:42.439Z,2.40
2023-03-20T15:37:15.305Z,1.45
2023-03-20T15:39:45.661Z,1.20
2023-03-20T15:42:15.818Z,1.50
2023-03-20T15:44:47.929Z,1.33
2023-03-20T15:47:21.131Z,1.40
2023-03-20T15:49:54.015Z,2.88
2023-03-20T15:52:28.672Z,1.55
2023-03-20T15:54:58.017Z,1.10
2023-03-20T15:57:30.764Z,1.50
2023-03-20T15:59:59.253Z,1.10
2023-03-20T16:02:30.675Z,1.30
2023-03-20T16:04:58.369Z,1.20
2023-03-20T16:07:30.917Z,1.13
2023-03-20T16:09:59.576Z,1.40
2023-03-20T16:12:27.866Z,1.48
2023-03-20T16:14:56.748Z,1.50
2023-03-20T16:17:26.038Z,1.80
2023-03-20T16:19:55.256Z,1.75
2023-03-20T16:22:26.050Z,1.27
2023-03-20T16:24:58.182Z,2.00
2023-03-20T16:27:29.156Z,1.95
2023-03-20T16:29:57.647Z,1.73
2023-03-20T16:32:36.654Z,2.17
2023-03-20T16:35:09.863Z,1.80
2023-03-20T16:37:44.889Z,1.70
2023-03-20T16:40:19.316Z,1.85
2023-03-20T16:42:47.443Z,1.50
2023-03-20T16:45:22.560Z,1.67
2023-03-20T16:47:50.438Z,3.35
2023-03-20T16:50:21.986Z,2.22
2023-03-20T16:52:52.379Z,2.63
2023-03-20T16:55:27.389Z,2.55
2023-03-20T16:57:58.702Z,2.58
2023-03-20T17:00:30.108Z,3.63
2023-03-20T17:03:16.730Z,2.95
2023-03-20T17:05:58.153Z,1.88
2023-03-20T17:08:32.411Z,2.30
2023-03-20T17:11:09.693Z,1.90
2023-03-20T17:13:37.198Z,2.38
2023-03-20T17:16:05.454Z,2.15
2023-03-20T17:18:38.987Z,2.22
2023-03-20T17:21:08.272Z,1.80
2023-03-20T17:23:35.985Z,1.92
2023-03-20T17:26:03.557Z,1.63
2023-03-20T17:28:37.030Z,2.25
2023-03-20T17:33:33.782Z,1.92
2023-03-20T17:36:01.829Z,2.17
2023-03-20T17:38:31.436Z,3.78
2023-03-20T17:40:59.087Z,3.28
2023-03-20T17:43:26.652Z,3.22
2023-03-20T17:45:54.348Z,2.13
2023-03-20T17:48:22.414Z,2.80
2023-03-20T17:50:51.301Z,3.45
2023-03-20T17:53:21.155Z,4.43
2023-03-20T17:55:50.200Z,4.80
2023-03-20T17:58:20.904Z,5.00
2023-03-20T18:00:48.828Z,2.70
2023-03-20T18:03:18.003Z,3.28
2023-03-20T18:05:46.624Z,3.13
2023-03-20T18:08:16.419Z,2.78
2023-03-20T18:10:44.813Z,1.98
2023-03-20T18:13:13.832Z,2.30
2023-03-20T18:15:41.865Z,2.45
2023-03-20T18:18:09.660Z,2.55
2023-03-20T18:20:39.667Z,3.10
2023-03-20T18:23:07.527Z,2.38
2023-03-20T18:25:36.014Z,2.50
2023-03-20T18:28:06.696Z,2.90
2023-03-20T18:30:37.950Z,4.35
2023-03-20T18:33:06.233Z,4.13
2023-03-20T18:35:34.232Z,3.00
2023-03-20T18:38:03.817Z,3.45
2023-03-20T18:40:33.318Z,2.40
2023-03-20T18:43:01.299Z,2.80
2023-03-20T18:45:30.665Z,3.50
2023-03-20T18:47:59.899Z,3.55
2023-03-20T18:50:29.801Z,3.40
2023-03-20T18:52:59.234Z,2.55
2023-03-20T18:55:28.613Z,3.33
2023-03-20T18:57:57.120Z,3.45
2023-03-20T19:00:27.137Z,3.28
2023-03-20T19:02:56.452Z,3.85
2023-03-20T19:05:27.640Z,3.97
2023-03-20T19:07:56.228Z,2.92
2023-03-20T19:10:30.260Z,2.38
2023-03-20T19:12:58.409Z,3.00
2023-03-20T19:15:28.193Z,2.50
2023-03-20T19:17:56.812Z,2.30
2023-03-20T19:20:36.049Z,2.47
2023-03-20T19:23:05.425Z,2.30
2023-03-20T19:25:33.497Z,2.17
2023-03-20T19:28:02.189Z,2.95
2023-03-20T19:30:32.531Z,4.63
2023-03-20T19:33:00.542Z,3.88
2023-03-20T19:38:20.654Z,2.13
2023-03-20T19:40:49.293Z,2.83
2023-03-20T19:43:17.197Z,2.53
2023-03-20T19:45:45.874Z,2.55
2023-03-20T19:48:16.580Z,8.75
2023-03-20T19:50:46.698Z,10.73
2023-03-20T19:53:16.607Z,4.80
2023-03-20T19:55:46.342Z,3.67
2023-03-20T19:58:14.663Z,2.42
2023-03-20T20:01:00.806Z,5.80
2023-03-20T20:03:29.029Z,3.08
2023-03-20T20:05:56.893Z,2.15
2023-03-20T20:08:41.018Z,1.80
2023-03-20T20:11:14.971Z,2.08
2023-03-20T20:14:04.183Z,1.77
2023-03-20T20:16:31.606Z,1.48
2023-03-20T20:18:59.215Z,1.60
2023-03-20T20:24:15.920Z,1.40
2023-03-20T20:26:54.487Z,1.20
2023-03-20T20:29:25.451Z,1.27
2023-03-20T20:31:53.174Z,5.40
2023-03-20T20:39:56.346Z,1.90
2023-03-20T20:42:25.363Z,2.10
2023-03-20T20:44:52.868Z,2.25
2023-03-20T20:47:21.198Z,1.95
2023-03-20T20:49:49.021Z,2.20
2023-03-20T20:52:17.437Z,2.03
2023-03-20T20:54:45.041Z,2.15
2023-03-20T20:57:12.891Z,2.03
2023-03-20T20:59:42.088Z,3.05
2023-03-20T21:02:11.868Z,2.67
2023-03-20T21:04:40.489Z,8.30
2023-03-20T21:07:11.556Z,8.82
2023-03-20T21:09:39.893Z,3.30
2023-03-20T21:12:08.588Z,1.85
2023-03-20T21:14:39.562Z,1.90
2023-03-20T21:17:09.972Z,3.08
2023-03-20T21:19:39.794Z,3.17
2023-03-20T21:22:09.024Z,2.90
2023-03-20T21:24:41.199Z,2.15
2023-03-20T21:27:13.712Z,4.75
2023-03-20T21:29:43.015Z,11.83
2023-03-20T21:32:13.581Z,3.38
2023-03-20T21:34:41.557Z,4.60
2023-03-20T21:38:13.105Z,5.20
2023-03-20T21:39:59.102Z,4.32
2023-03-20T21:42:26.970Z,3.53
2023-03-20T21:45:46.283Z,2.60
2023-03-20T21:48:33.339Z,5.00
2023-03-20T21:50:52.911Z,4.22
2023-03-20T21:54:11.038Z,2.83
2023-03-20T21:56:50.467Z,22.67
2023-03-20T21:59:38.127Z,14.88
2023-03-20T22:02:07.733Z,3.35
2023-03-20T22:05:21.872Z,2.38
2023-03-20T22:07:52.104Z,2.05
2023-03-20T22:11:09.463Z,1.75
2023-03-20T22:19:38.505Z,2.20
2023-03-20T22:22:00.039Z,2.40
2023-03-20T22:30:22.906Z,2.05
2023-03-20T22:46:47.450Z,3.05
2023-03-20T22:49:15.945Z,2.83
2023-03-20T22:51:57.492Z,2.88
2023-03-20T22:54:32.100Z,2.10
2023-03-20T22:56:59.693Z,2.03
2023-03-20T22:59:27.257Z,3.00
2023-03-20T23:01:54.859Z,2.40
2023-03-20T23:04:22.447Z,3.33
2023-03-20T23:06:50.007Z,2.83
2023-03-20T23:09:17.823Z,2.65
2023-03-20T23:11:47.289Z,2.95
2023-03-20T23:14:21.351Z,2.83
2023-03-20T23:16:49.815Z,2.90
2023-03-20T23:19:17.452Z,2.53
2023-03-20T23:21:45.077Z,2.38
2023-03-20T23:24:12.622Z,2.30
2023-03-20T23:26:40.336Z,2.20
2023-03-20T23:29:09.434Z,1.98
2023-03-20T23:31:37.049Z,2.45
2023-03-20T23:34:04.716Z,2.40
2023-03-20T23:36:37.024Z,2.25
2023-03-20T23:39:05.977Z,1.55
2023-03-20T23:44:22.625Z,2.22
2023-03-20T23:46:50.491Z,2.55
2023-03-20T23:49:18.342Z,2.70
2023-03-20T23:51:46.305Z,2.83
2023-03-20T23:54:14.263Z,2.70
2023-03-20T23:56:41.943Z,2.92
2023-03-20T23:59:20.705Z,2.33
